createdAt,value
2022-12-15T08:03:57.621Z,100874.78
2022-12-15T08:06:24.929Z,100874.03
2022-12-15T08:08:51.632Z,100884.06
2022-12-15T08:11:19.818Z,100883.25
2022-12-15T08:14:03.503Z,100893.16
2022-12-15T08:16:31.466Z,100883.91
2022-12-15T08:18:58.055Z,100889.72
2022-12-15T08:21:24.620Z,100878.66
2022-12-15T08:23:51.285Z,100888.44
2022-12-15T08:26:18.890Z,100881.53
2022-12-15T08:28:46.150Z,100875.44
2022-12-15T08:31:22.168Z,100871.13
2022-12-15T08:33:49.587Z,100884.19
2022-12-15T08:36:18.351Z,100885.41
2022-12-15T08:38:46.235Z,100882.66
2022-12-15T08:41:16.490Z,100884.91
2022-12-15T08:43:48.199Z,100902.91
2022-12-15T08:46:25.499Z,100905.16
2022-12-15T08:48:55.569Z,100901.09
2022-12-15T08:51:23.758Z,100905.31
2022-12-15T08:53:50.438Z,100906.28
2022-12-15T08:56:19.808Z,100915.63
2022-12-15T08:58:47.778Z,100912.16
2022-12-15T09:01:24.225Z,100904.63
2022-12-15T09:03:55.407Z,100915.25
2022-12-15T09:06:31.206Z,100908.16
2022-12-15T09:09:00.496Z,100911.31
2022-12-15T09:11:28.748Z,100899.13
2022-12-15T09:13:55.524Z,100907.88
2022-12-15T09:16:22.824Z,100902.97
2022-12-15T09:18:51.842Z,100903.56
2022-12-15T09:21:22.227Z,100908.50
2022-12-15T09:23:51.591Z,100909.06
2022-12-15T09:26:19.443Z,100918.38
2022-12-15T09:28:50.167Z,100919.75
2022-12-15T09:31:28.160Z,100931.47
2022-12-15T09:33:56.646Z,100928.16
2022-12-15T09:36:24.094Z,100929.63
2022-12-15T09:38:50.522Z,100926.41
2022-12-15T09:41:22.618Z,100930.41
2022-12-15T09:44:04.186Z,100931.03
2022-12-15T09:46:42.230Z,100927.31
2022-12-15T09:49:43.533Z,100931.81
2022-12-15T09:52:17.729Z,100932.38
2022-12-15T09:54:45.022Z,100943.56
2022-12-15T09:57:26.074Z,100942.69
2022-12-15T10:00:22.310Z,100943.66
2022-12-15T10:02:56.132Z,100954.00
2022-12-15T10:06:15.370Z,100952.59
2022-12-15T10:08:32.889Z,100951.66
2022-12-15T10:11:02.261Z,100952.97
2022-12-15T10:13:55.734Z,100956.44
2022-12-15T10:16:34.274Z,100969.66
2022-12-15T10:19:22.519Z,100963.13
2022-12-15T10:21:50.411Z,100955.41
2022-12-15T10:24:44.242Z,100950.31
2022-12-15T10:27:24.385Z,100957.81
2022-12-15T10:30:05.387Z,100949.41
2022-12-15T10:33:02.068Z,100957.53
2022-12-15T10:35:34.206Z,100947.53
2022-12-15T10:38:37.646Z,100964.38
2022-12-15T10:41:22.395Z,100951.44
2022-12-15T10:43:51.430Z,100961.44
2022-12-15T10:46:20.079Z,100962.38
2022-12-15T10:48:51.763Z,100964.41
2022-12-15T10:51:20.119Z,100965.72
2022-12-15T10:53:53.885Z,100952.38
2022-12-15T10:56:32.787Z,100954.00
2022-12-15T10:59:03.893Z,100954.16
2022-12-15T11:01:31.902Z,100948.31
2022-12-15T11:03:58.665Z,100953.13
2022-12-15T11:06:31.225Z,100944.50
2022-12-15T11:09:26.761Z,100942.59
2022-12-15T11:12:12.292Z,100940.25
2022-12-15T11:14:46.438Z,100939.94
2022-12-15T11:17:19.449Z,100931.44
2022-12-15T11:20:07.020Z,100942.44
2022-12-15T11:22:50.358Z,100935.22
2022-12-15T11:28:52.687Z,100935.13
2022-12-15T11:31:29.900Z,100943.38
2022-12-15T11:33:56.404Z,100936.19
2022-12-15T11:36:50.027Z,100937.41
2022-12-15T11:39:49.884Z,100942.31
2022-12-15T11:42:38.704Z,100941.25
2022-12-15T11:45:37.032Z,100933.53
2022-12-15T11:48:20.864Z,100930.81
2022-12-15T11:51:10.534Z,100931.31
2022-12-15T11:53:56.204Z,100930.44
2022-12-15T11:56:41.418Z,100933.91
2022-12-15T11:59:32.355Z,100937.53
2022-12-15T12:02:18.879Z,100935.31
2022-12-15T12:05:07.079Z,100939.34
2022-12-15T12:08:01.350Z,100943.81
2022-12-15T12:10:31.007Z,100945.38
2022-12-15T12:13:11.982Z,100939.81
2022-12-15T12:16:01.542Z,100934.75
2022-12-15T12:18:34.297Z,100931.28
2022-12-15T12:21:08.410Z,100923.13
2022-12-15T12:23:39.578Z,100923.94
2022-12-15T12:26:15.767Z,100928.75
2022-12-15T12:28:48.868Z,100924.03
2022-12-15T12:31:22.569Z,100921.31
2022-12-15T12:33:55.357Z,100916.63
2022-12-15T12:36:21.893Z,100916.97
2022-12-15T12:38:52.933Z,100919.34
2022-12-15T12:41:38.108Z,100918.09
2022-12-15T12:44:15.670Z,100907.81
2022-12-15T12:46:48.988Z,100914.16
2022-12-15T12:49:27.871Z,100920.91
2022-12-15T12:52:00.483Z,100908.66
2022-12-15T12:54:35.888Z,100911.50
2022-12-15T12:57:37.715Z,100905.19
2022-12-15T13:00:20.437Z,100906.50
2022-12-15T13:02:52.835Z,100895.25
2022-12-15T13:05:37.157Z,100888.31
2022-12-15T13:08:04.950Z,100891.25
2022-12-15T13:10:36.176Z,100885.53
2022-12-15T13:13:08.612Z,100880.66
2022-12-15T13:15:42.390Z,100887.59
2022-12-15T13:18:19.855Z,100888.22
2022-12-15T13:20:50.452Z,100888.88
2022-12-15T13:23:20.028Z,100885.56
2022-12-15T13:26:06.667Z,100877.53
2022-12-15T13:28:35.910Z,100881.38
2022-12-15T13:31:18.485Z,100874.59
2022-12-15T13:33:51.339Z,100876.44
2022-12-15T13:36:36.327Z,100874.41
2022-12-15T13:39:24.126Z,100877.06
2022-12-15T13:42:23.774Z,100871.44
2022-12-15T13:44:42.732Z,100873.78
2022-12-15T13:47:16.575Z,100875.28
2022-12-15T13:55:39.834Z,100877.75
2022-12-15T13:58:15.967Z,100869.25
2022-12-15T14:00:52.685Z,100864.25
2022-12-15T14:03:19.611Z,100862.03
2022-12-15T14:05:55.318Z,100864.66
2022-12-15T14:08:23.631Z,100861.91
2022-12-15T14:10:55.407Z,100859.41
2022-12-15T14:13:30.367Z,100868.78
2022-12-15T14:16:16.629Z,100865.47
2022-12-15T14:18:43.273Z,100857.03
2022-12-15T14:21:22.203Z,100854.53
2022-12-15T14:24:19.698Z,100861.47
2022-12-15T14:26:36.015Z,100860.50
2022-12-15T14:29:05.302Z,100852.63
2022-12-15T14:31:31.987Z,100852.41
2022-12-15T14:34:13.553Z,100839.63
2022-12-15T14:36:41.984Z,100837.78
2022-12-15T14:39:20.222Z,100842.59
2022-12-15T14:41:49.162Z,100840.22
2022-12-15T14:44:48.126Z,100847.59
2022-12-15T14:47:26.746Z,100839.06
2022-12-15T14:49:55.204Z,100847.88
2022-12-15T14:52:28.210Z,100832.31
2022-12-15T14:54:57.838Z,100835.75
2022-12-15T14:57:40.721Z,100832.75
2022-12-15T15:00:27.795Z,100834.53
2022-12-15T15:03:05.642Z,100877.59
2022-12-15T15:03:06.890Z,100937.16
2022-12-15T15:03:19.136Z,100828.72
2022-12-15T15:05:50.257Z,100834.00
2022-12-15T15:08:44.826Z,100832.13
2022-12-15T15:11:17.395Z,100825.84
2022-12-15T15:13:44.838Z,100827.09
2022-12-15T15:16:17.698Z,100829.56
2022-12-15T15:18:48.576Z,100824.81
2022-12-15T15:21:20.879Z,100821.69
2022-12-15T15:24:04.911Z,100826.13
2022-12-15T15:26:31.567Z,100823.00
2022-12-15T15:28:58.495Z,100822.25
2022-12-15T15:31:24.956Z,100810.81
2022-12-15T15:33:52.744Z,100818.78
2022-12-15T15:36:19.250Z,100816.84
2022-12-15T15:38:46.724Z,100814.81
2022-12-15T15:41:18.746Z,100807.97
2022-12-15T15:43:45.971Z,100816.00
2022-12-15T15:46:19.899Z,100815.66
2022-12-15T15:48:52.218Z,100814.50
2022-12-15T15:51:19.605Z,100820.56
2022-12-15T15:53:46.652Z,100824.94
2022-12-15T15:56:16.330Z,100820.66
2022-12-15T15:58:43.803Z,100826.28
2022-12-15T16:01:13.334Z,100827.09
2022-12-15T16:03:41.177Z,100831.06
2022-12-15T16:06:17.063Z,100830.66
2022-12-15T16:08:46.375Z,100836.63
2022-12-15T16:11:12.839Z,100842.56
2022-12-15T16:13:39.428Z,100834.25
2022-12-15T16:16:06.685Z,100836.63
2022-12-15T16:18:33.548Z,100844.56
2022-12-15T16:21:00.234Z,100846.53
2022-12-15T16:23:29.277Z,100844.09
2022-12-15T16:26:00.311Z,100842.13
2022-12-15T16:28:29.473Z,100842.94
2022-12-15T16:30:58.655Z,100836.59
2022-12-15T16:33:25.272Z,100838.19
